createdAt,value
2018-09-06T00:01:37.106Z,16.67
2018-09-06T00:04:05.659Z,15.97
2018-09-06T00:06:34.234Z,15.70
2018-09-06T00:09:02.836Z,15.57
2018-09-06T00:11:31.378Z,16.07
2018-09-06T00:13:59.903Z,16.47
2018-09-06T00:16:28.520Z,15.97
2018-09-06T00:18:57.098Z,17.10
2018-09-06T00:21:25.674Z,16.13
2018-09-06T00:23:54.214Z,15.83
2018-09-06T00:26:22.814Z,15.90
2018-09-06T00:28:51.335Z,16.27
2018-09-06T00:31:19.887Z,16.40
2018-09-06T00:33:48.402Z,16.67
2018-09-06T00:36:16.954Z,16.57
2018-09-06T00:38:45.487Z,17.20
2018-09-06T00:41:14.061Z,17.07
2018-09-06T00:43:42.594Z,16.97
2018-09-06T00:46:11.165Z,16.60
2018-09-06T00:48:39.749Z,17.27
2018-09-06T00:51:08.390Z,16.10
2018-09-06T00:53:36.913Z,17.37
2018-09-06T00:56:05.518Z,16.53
2018-09-06T00:58:34.094Z,17.00
2018-09-06T01:01:02.646Z,16.83
2018-09-06T01:03:31.209Z,15.80
2018-09-06T01:05:59.773Z,16.03
2018-09-06T01:08:28.384Z,15.90
2018-09-06T01:10:57.006Z,15.20
2018-09-06T01:13:25.551Z,16.20
2018-09-06T01:15:54.125Z,16.33
2018-09-06T01:18:22.673Z,17.60
2018-09-06T01:20:51.273Z,16.80
2018-09-06T01:23:19.797Z,17.67
2018-09-06T01:25:49.213Z,16.50
2018-09-06T01:28:19.546Z,16.87
2018-09-06T01:30:48.345Z,17.50
2018-09-06T01:33:16.878Z,17.43
2018-09-06T01:35:50.943Z,17.77
2018-09-06T01:38:19.489Z,18.50
2018-09-06T01:40:48.102Z,16.50
2018-09-06T01:43:16.674Z,17.40
2018-09-06T01:45:45.208Z,17.27
2018-09-06T01:48:13.773Z,16.53
2018-09-06T01:50:42.321Z,17.83
2018-09-06T01:53:11.145Z,17.07
2018-09-06T01:55:39.684Z,16.30
2018-09-06T01:58:08.261Z,17.13
2018-09-06T02:00:36.809Z,16.63
2018-09-06T02:03:05.394Z,16.13
2018-09-06T02:05:37.614Z,17.80
2018-09-06T02:08:07.757Z,17.80
2018-09-06T02:10:36.541Z,18.23
2018-09-06T02:13:05.106Z,18.40
2018-09-06T02:15:34.014Z,17.53
2018-09-06T02:18:02.550Z,17.73
2018-09-06T02:20:31.085Z,18.10
2018-09-06T02:22:59.629Z,18.33
2018-09-06T02:25:28.203Z,18.13
2018-09-06T02:27:56.956Z,18.23
2018-09-06T02:30:25.584Z,17.23
2018-09-06T02:32:54.129Z,16.73
2018-09-06T02:35:22.646Z,17.80
2018-09-06T02:37:51.187Z,17.63
2018-09-06T02:40:25.118Z,17.47
2018-09-06T02:42:53.661Z,16.47
2018-09-06T02:45:22.178Z,16.37
2018-09-06T02:47:55.973Z,16.50
2018-09-06T02:50:29.837Z,16.63
2018-09-06T02:52:58.442Z,17.40
2018-09-06T02:55:28.310Z,17.13
2018-09-06T02:57:57.332Z,16.27
2018-09-06T03:00:32.438Z,17.27
2018-09-06T03:03:01.099Z,17.07
2018-09-06T03:05:29.637Z,17.90
2018-09-06T03:07:59.301Z,18.17
2018-09-06T03:10:30.977Z,18.90
2018-09-06T03:12:59.569Z,18.20
2018-09-06T03:15:28.208Z,17.53
2018-09-06T03:17:56.757Z,17.53
2018-09-06T03:20:25.295Z,18.13
2018-09-06T03:22:53.894Z,17.60
2018-09-06T03:25:22.430Z,17.77
2018-09-06T03:27:51.026Z,17.60
2018-09-06T03:30:19.586Z,19.60
2018-09-06T03:32:48.145Z,18.00
2018-09-06T03:35:16.696Z,17.63
2018-09-06T03:37:45.313Z,16.77
2018-09-06T03:40:13.864Z,18.70
2018-09-06T03:42:42.430Z,17.53
2018-09-06T03:45:11.098Z,17.23
2018-09-06T03:47:39.684Z,17.27
2018-09-06T03:50:08.249Z,17.80
2018-09-06T03:52:36.825Z,17.13
2018-09-06T03:55:05.485Z,17.20
2018-09-06T03:57:34.117Z,16.67
2018-09-06T04:00:02.681Z,16.97
2018-09-06T04:02:31.258Z,17.13
2018-09-06T04:04:59.873Z,16.77
2018-09-06T04:07:28.689Z,17.30
2018-09-06T04:09:57.217Z,19.93
2018-09-06T04:12:25.765Z,19.80
2018-09-06T04:14:54.286Z,19.77
2018-09-06T04:17:22.857Z,18.63
2018-09-06T04:19:51.372Z,18.30
2018-09-06T04:22:19.934Z,18.83
2018-09-06T04:24:48.959Z,17.60
2018-09-06T04:27:17.510Z,17.63
2018-09-06T04:29:46.050Z,17.97
2018-09-06T04:32:14.570Z,17.93
2018-09-06T04:34:43.119Z,18.13
2018-09-06T04:37:11.637Z,17.60
2018-09-06T04:39:40.194Z,16.97
2018-09-06T04:42:08.813Z,16.40
2018-09-06T04:44:37.362Z,17.30
2018-09-06T04:47:05.893Z,19.27
2018-09-06T04:49:34.466Z,17.67
2018-09-06T04:52:03.054Z,18.50
2018-09-06T04:54:31.613Z,17.70
2018-09-06T04:57:00.121Z,17.83
2018-09-06T04:59:28.674Z,16.83
2018-09-06T05:01:57.192Z,18.30
2018-09-06T05:04:25.798Z,17.57
2018-09-06T05:06:54.327Z,17.10
2018-09-06T05:09:22.886Z,18.60
2018-09-06T05:11:51.443Z,17.53
2018-09-06T05:14:19.990Z,17.23
2018-09-06T05:16:48.506Z,17.13
2018-09-06T05:19:17.058Z,17.47
2018-09-06T05:21:45.699Z,17.30
2018-09-06T05:24:14.261Z,18.03
2018-09-06T05:26:42.773Z,17.23
2018-09-06T05:29:11.322Z,16.97
2018-09-06T05:31:39.934Z,15.93
2018-09-06T05:34:08.511Z,18.03
2018-09-06T05:36:37.230Z,16.40
2018-09-06T05:39:08.597Z,16.33
2018-09-06T05:41:37.243Z,18.50
2018-09-06T05:44:07.741Z,17.80
2018-09-06T05:46:36.503Z,18.10
2018-09-06T05:49:06.133Z,17.87
2018-09-06T05:51:35.087Z,18.67
2018-09-06T05:54:03.641Z,19.87
2018-09-06T05:56:32.368Z,17.90
2018-09-06T05:59:01.210Z,17.87
2018-09-06T06:01:29.749Z,17.13
2018-09-06T06:03:58.364Z,17.07
2018-09-06T06:06:28.110Z,18.57
2018-09-06T06:09:01.475Z,18.47
2018-09-06T06:11:30.421Z,18.03
2018-09-06T06:13:59.408Z,18.70
2018-09-06T06:16:29.028Z,18.00
2018-09-06T06:18:57.830Z,18.40
2018-09-06T06:21:26.401Z,18.33
2018-09-06T06:23:55.264Z,17.87
2018-09-06T06:26:23.906Z,17.00
2018-09-06T06:28:56.372Z,18.13
2018-09-06T06:31:25.098Z,18.00
2018-09-06T06:33:54.192Z,18.87
2018-09-06T06:36:22.756Z,18.90
2018-09-06T06:38:51.411Z,20.03
2018-09-06T06:41:19.961Z,18.40
2018-09-06T06:43:48.739Z,18.83
2018-09-06T06:46:17.345Z,18.30
2018-09-06T06:48:46.892Z,18.83
2018-09-06T06:51:16.505Z,19.20
2018-09-06T06:53:45.025Z,17.53
2018-09-06T06:56:13.632Z,17.93
2018-09-06T06:58:42.239Z,18.53
2018-09-06T07:01:10.774Z,18.17
2018-09-06T07:03:39.731Z,18.30
2018-09-06T07:06:08.295Z,17.83
2018-09-06T07:08:36.869Z,18.90
2018-09-06T07:11:05.570Z,19.73
2018-09-06T07:13:34.125Z,18.47
2018-09-06T07:16:02.902Z,17.90
2018-09-06T07:18:31.841Z,18.17
2018-09-06T07:21:01.001Z,17.33
2018-09-06T07:23:29.575Z,17.07
2018-09-06T07:25:58.162Z,16.50
2018-09-06T07:28:26.721Z,17.40
2018-09-06T07:30:55.337Z,17.57
2018-09-06T07:33:23.917Z,17.60
2018-09-06T07:35:52.538Z,16.93
2018-09-06T07:38:22.120Z,17.40
2018-09-06T07:40:50.714Z,16.50
2018-09-06T07:43:19.294Z,15.77
2018-09-06T07:45:52.477Z,17.00
2018-09-06T07:48:24.439Z,16.57
2018-09-06T07:50:53.165Z,15.53
2018-09-06T07:53:22.411Z,16.13
2018-09-06T07:55:56.488Z,14.90
2018-09-06T07:58:25.192Z,14.67
2018-09-06T08:01:02.767Z,16.07
2018-09-06T08:03:32.528Z,15.70
2018-09-06T08:06:01.106Z,15.47
2018-09-06T08:08:32.336Z,15.03
2018-09-06T08:11:03.831Z,14.60
2018-09-06T08:13:38.043Z,14.77
2018-09-06T08:16:10.657Z,15.73
2018-09-06T08:18:42.664Z,16.57
2018-09-06T08:21:11.468Z,15.47
2018-09-06T08:23:40.045Z,14.97
2018-09-06T08:26:08.768Z,15.27
2018-09-06T08:28:37.384Z,14.60
2018-09-06T08:31:06.028Z,15.47
2018-09-06T08:33:34.933Z,15.10
2018-09-06T08:36:03.580Z,15.23
2018-09-06T08:38:32.716Z,14.73
2018-09-06T08:41:01.312Z,14.20
2018-09-06T08:43:29.914Z,14.77
2018-09-06T08:45:58.624Z,14.60
2018-09-06T08:48:27.282Z,14.27
2018-09-06T08:50:55.855Z,15.83
2018-09-06T08:53:24.402Z,14.83
2018-09-06T08:55:52.953Z,14.50
2018-09-06T08:58:22.646Z,13.90
2018-09-06T09:00:56.457Z,13.97
2018-09-06T09:03:25.009Z,12.97
2018-09-06T09:05:54.329Z,13.90
2018-09-06T09:08:22.942Z,13.37
2018-09-06T09:10:51.567Z,12.03
2018-09-06T09:13:20.274Z,13.93
2018-09-06T09:15:48.836Z,13.50
2018-09-06T09:18:17.438Z,14.47
2018-09-06T09:20:46.235Z,13.70
2018-09-06T09:23:14.893Z,13.00
2018-09-06T09:25:43.484Z,13.30
2018-09-06T09:28:12.093Z,13.10
2018-09-06T09:30:40.744Z,13.40
2018-09-06T09:33:09.377Z,12.97
2018-09-06T09:35:37.976Z,14.67
2018-09-06T09:38:06.914Z,14.33
2018-09-06T09:40:35.523Z,14.87
2018-09-06T09:43:04.349Z,13.87
2018-09-06T09:45:32.993Z,13.70
2018-09-06T09:48:01.576Z,13.33
2018-09-06T09:52:58.408Z,13.80
2018-09-06T09:55:27.101Z,13.17
2018-09-06T09:57:56.472Z,12.77
2018-09-06T10:00:31.096Z,13.30
2018-09-06T10:03:05.177Z,14.00
2018-09-06T10:05:39.241Z,12.87
2018-09-06T10:08:13.137Z,13.67
2018-09-06T10:10:42.189Z,14.00
2018-09-06T10:13:11.349Z,12.93
2018-09-06T10:15:46.309Z,14.10
2018-09-06T10:18:15.229Z,14.20
2018-09-06T10:20:49.255Z,11.57
2018-09-06T10:23:17.914Z,12.57
2018-09-06T10:25:46.506Z,12.93
2018-09-06T10:28:16.105Z,12.03
2018-09-06T10:30:44.659Z,13.27
2018-09-06T10:33:13.222Z,13.60
2018-09-06T10:35:41.797Z,15.50
2018-09-06T10:38:10.531Z,12.40
2018-09-06T10:40:39.557Z,12.63
2018-09-06T10:43:08.113Z,12.13
2018-09-06T10:45:36.741Z,11.70
2018-09-06T10:48:05.466Z,12.20
2018-09-06T10:50:34.031Z,12.50
2018-09-06T10:53:03.017Z,11.10
2018-09-06T10:55:31.741Z,11.83
2018-09-06T10:58:00.385Z,12.47
2018-09-06T11:00:29.687Z,12.03
2018-09-06T11:02:58.718Z,12.50
2018-09-06T11:05:27.430Z,12.50
2018-09-06T11:07:56.275Z,12.10
2018-09-06T11:10:24.797Z,11.63
2018-09-06T11:12:53.389Z,11.23
2018-09-06T11:15:21.989Z,11.03
2018-09-06T11:17:50.610Z,11.47
2018-09-06T11:20:19.204Z,11.30
2018-09-06T11:22:47.896Z,11.80
2018-09-06T11:25:16.399Z,11.20
2018-09-06T11:27:44.980Z,12.40
2018-09-06T11:30:14.585Z,11.63
2018-09-06T11:32:43.247Z,11.83
2018-09-06T11:35:11.860Z,11.53
2018-09-06T11:37:40.620Z,11.00
2018-09-06T11:40:09.265Z,10.30
2018-09-06T11:42:37.858Z,10.43
2018-09-06T11:45:06.642Z,11.13
2018-09-06T11:47:35.239Z,11.00
2018-09-06T11:50:03.922Z,11.10
2018-09-06T11:52:32.592Z,10.63
2018-09-06T11:55:01.818Z,10.57
2018-09-06T11:57:30.496Z,10.70
2018-09-06T11:59:59.162Z,10.83
2018-09-06T12:02:27.883Z,11.07
2018-09-06T12:04:56.601Z,10.33
2018-09-06T12:07:25.252Z,9.77
2018-09-06T12:09:53.831Z,10.17
2018-09-06T12:12:22.534Z,10.33
2018-09-06T12:14:51.098Z,9.93
2018-09-06T12:17:19.664Z,10.33
2018-09-06T12:19:48.657Z,9.83
2018-09-06T12:22:17.266Z,9.83
2018-09-06T12:24:45.933Z,10.23
2018-09-06T12:27:14.510Z,9.30
2018-09-06T12:29:43.113Z,9.10
2018-09-06T12:32:11.646Z,10.47
2018-09-06T12:34:40.225Z,10.13
2018-09-06T12:37:12.133Z,10.80
2018-09-06T12:39:41.240Z,10.67
2018-09-06T12:42:10.905Z,10.77
2018-09-06T12:44:39.609Z,6.90
2018-09-06T12:47:08.191Z,6.70
2018-09-06T12:49:36.816Z,6.80
2018-09-06T12:52:05.397Z,6.40
2018-09-06T12:54:34.254Z,6.70
2018-09-06T12:57:02.800Z,6.70
2018-09-06T12:59:32.153Z,6.50
2018-09-06T13:02:01.339Z,6.70
2018-09-06T13:04:29.938Z,6.20
2018-09-06T13:06:58.533Z,5.80
2018-09-06T13:09:27.086Z,5.80
2018-09-06T13:11:55.705Z,5.77
2018-09-06T13:14:24.264Z,4.67
2018-09-06T13:16:52.901Z,5.67
2018-09-06T13:19:21.486Z,5.23
2018-09-06T13:21:50.040Z,4.47
2018-09-06T13:24:18.717Z,4.20
2018-09-06T13:26:47.696Z,4.07
2018-09-06T13:29:16.283Z,4.53
2018-09-06T13:31:44.865Z,4.93
2018-09-06T13:34:13.512Z,4.90
2018-09-06T13:36:42.090Z,5.97
2018-09-06T13:39:15.677Z,5.53
2018-09-06T13:41:44.381Z,6.80
2018-09-06T13:44:13.014Z,6.93
2018-09-06T13:46:41.765Z,7.30
2018-09-06T13:49:10.334Z,6.43
2018-09-06T13:51:38.949Z,6.90
2018-09-06T13:54:08.762Z,7.17
2018-09-06T13:56:37.344Z,7.13
2018-09-06T13:59:06.059Z,7.00
2018-09-06T14:01:35.123Z,7.20
2018-09-06T14:04:03.645Z,6.70
2018-09-06T14:06:32.297Z,6.73
2018-09-06T14:09:00.897Z,6.83
2018-09-06T14:11:29.439Z,5.90
2018-09-06T14:13:57.961Z,6.10
2018-09-06T14:16:26.551Z,5.97
2018-09-06T14:18:55.101Z,6.47
2018-09-06T14:21:23.640Z,6.40
2018-09-06T14:23:52.150Z,5.87
2018-09-06T14:26:20.696Z,6.50
2018-09-06T14:28:49.214Z,6.30
2018-09-06T14:31:17.798Z,7.03
2018-09-06T14:33:46.308Z,7.27
2018-09-06T14:36:14.872Z,8.70
2018-09-06T14:38:43.424Z,10.70
2018-09-06T14:41:12.005Z,12.47
2018-09-06T14:43:40.537Z,10.50
2018-09-06T14:46:09.100Z,11.10
2018-09-06T14:48:37.641Z,10.73
2018-09-06T14:51:06.222Z,10.40
2018-09-06T14:53:34.762Z,10.23
2018-09-06T14:56:03.330Z,10.00
2018-09-06T14:58:31.845Z,9.93
2018-09-06T15:01:00.421Z,10.37
2018-09-06T15:03:28.989Z,8.87
2018-09-06T15:05:57.537Z,10.73
2018-09-06T15:08:26.110Z,9.47
2018-09-06T15:10:54.681Z,10.50
2018-09-06T15:13:23.218Z,10.67
2018-09-06T15:15:51.793Z,11.33
2018-09-06T15:18:20.337Z,13.70
2018-09-06T15:20:48.902Z,12.87
2018-09-06T15:23:17.453Z,13.07
2018-09-06T15:25:46.030Z,12.30
2018-09-06T15:28:14.837Z,13.00
2018-09-06T15:30:43.407Z,13.57
2018-09-06T15:33:12.497Z,13.60
2018-09-06T15:35:41.076Z,14.87
2018-09-06T15:38:09.624Z,12.53
2018-09-06T15:40:38.209Z,11.90
2018-09-06T15:43:06.990Z,13.30
2018-09-06T15:45:35.558Z,13.57
2018-09-06T15:48:04.109Z,12.13
2018-09-06T15:50:33.294Z,12.07
2018-09-06T15:53:02.234Z,14.30
2018-09-06T15:55:30.826Z,12.67
2018-09-06T15:57:59.393Z,12.93
2018-09-06T16:00:28.001Z,14.23
2018-09-06T16:02:56.601Z,12.87
2018-09-06T16:05:25.345Z,13.33
2018-09-06T16:07:54.027Z,12.10
2018-09-06T16:10:22.489Z,11.87
2018-09-06T16:12:51.038Z,13.10
2018-09-06T16:15:19.865Z,11.97
2018-09-06T16:17:48.424Z,13.07
2018-09-06T16:20:16.954Z,14.67
2018-09-06T16:22:46.371Z,13.80
2018-09-06T16:25:15.180Z,13.13
2018-09-06T16:27:43.854Z,13.80
2018-09-06T16:30:12.594Z,13.30
2018-09-06T16:32:42.075Z,14.17
2018-09-06T16:35:10.655Z,12.60
2018-09-06T16:37:39.286Z,12.47
2018-09-06T16:40:08.754Z,12.10
2018-09-06T16:42:37.349Z,12.60
2018-09-06T16:45:05.933Z,13.60
2018-09-06T16:47:34.482Z,11.67
2018-09-06T16:50:03.049Z,12.13
2018-09-06T16:52:31.748Z,11.17
2018-09-06T16:55:00.222Z,12.00
2018-09-06T16:57:28.783Z,12.03
2018-09-06T16:59:57.316Z,11.80
2018-09-06T17:02:25.851Z,11.27
2018-09-06T17:04:54.438Z,11.87
2018-09-06T17:07:23.094Z,11.57
2018-09-06T17:09:51.689Z,10.93
2018-09-06T17:12:20.759Z,11.00
2018-09-06T17:14:49.927Z,11.13
2018-09-06T17:17:18.490Z,11.47
2018-09-06T17:19:47.110Z,12.43
2018-09-06T17:22:15.694Z,12.27
2018-09-06T17:24:44.255Z,11.43
2018-09-06T17:27:12.925Z,11.23
2018-09-06T17:29:41.640Z,11.27
2018-09-06T17:32:10.198Z,12.10
2018-09-06T17:34:38.717Z,12.10
2018-09-06T17:37:07.467Z,12.70
2018-09-06T17:39:36.113Z,12.67
2018-09-06T17:42:04.707Z,12.00
2018-09-06T17:44:33.245Z,12.77
2018-09-06T17:47:01.820Z,12.50
2018-09-06T17:49:30.355Z,12.60
2018-09-06T17:51:58.965Z,12.30
2018-09-06T17:54:27.609Z,12.57
2018-09-06T17:56:56.110Z,12.23
2018-09-06T17:59:24.683Z,13.70
2018-09-06T18:01:53.305Z,12.50
2018-09-06T18:04:21.889Z,12.97
2018-09-06T18:06:50.428Z,12.70
2018-09-06T18:09:19.002Z,13.03
2018-09-06T18:11:47.600Z,12.27
2018-09-06T18:14:16.205Z,12.73
2018-09-06T18:16:44.778Z,13.47
2018-09-06T18:19:13.404Z,12.10
2018-09-06T18:21:41.976Z,13.37
2018-09-06T18:24:10.581Z,13.10
2018-09-06T18:26:39.146Z,13.73
2018-09-06T18:29:07.849Z,13.60
2018-09-06T18:31:36.406Z,12.97
2018-09-06T18:34:05.012Z,14.03
2018-09-06T18:36:33.561Z,13.67
2018-09-06T18:39:02.176Z,13.60
2018-09-06T18:41:30.822Z,14.17
2018-09-06T18:43:59.392Z,13.03
2018-09-06T18:46:27.950Z,13.83
2018-09-06T18:48:56.532Z,13.73
2018-09-06T18:51:25.118Z,13.17
2018-09-06T18:53:53.729Z,14.30
2018-09-06T18:56:22.328Z,13.23
2018-09-06T18:58:50.918Z,13.13
2018-09-06T19:01:19.441Z,13.47
2018-09-06T19:03:48.017Z,13.20
2018-09-06T19:06:16.605Z,13.37
2018-09-06T19:08:45.309Z,12.83
2018-09-06T19:11:14.005Z,13.77
2018-09-06T19:13:42.681Z,12.23
2018-09-06T19:16:11.229Z,12.33
2018-09-06T19:18:39.845Z,13.27
2018-09-06T19:21:09.042Z,12.53
2018-09-06T19:23:37.660Z,12.77
2018-09-06T19:26:06.372Z,12.37
2018-09-06T19:28:35.425Z,11.70
2018-09-06T19:31:04.073Z,12.60
2018-09-06T19:33:32.694Z,12.57
2018-09-06T19:36:01.527Z,13.53
2018-09-06T19:38:30.114Z,14.57
2018-09-06T19:40:58.693Z,13.87
2018-09-06T19:43:27.522Z,15.33
2018-09-06T19:45:56.243Z,14.27
2018-09-06T19:48:24.829Z,13.77
2018-09-06T19:50:53.554Z,13.47
2018-09-06T19:53:22.111Z,13.53
2018-09-06T19:55:51.327Z,13.20
2018-09-06T19:58:19.876Z,13.67
2018-09-06T20:00:48.553Z,13.57
2018-09-06T20:03:17.091Z,14.70
2018-09-06T20:05:45.666Z,14.70
2018-09-06T20:08:14.312Z,13.93
2018-09-06T20:10:42.879Z,14.67
2018-09-06T20:13:11.489Z,15.13
2018-09-06T20:15:40.069Z,15.43
2018-09-06T20:18:08.614Z,15.40
2018-09-06T20:20:37.181Z,16.27
2018-09-06T20:23:05.920Z,15.97
2018-09-06T20:25:34.580Z,15.00
2018-09-06T20:28:03.240Z,15.00
2018-09-06T20:30:31.905Z,14.33
2018-09-06T20:33:00.455Z,15.43
2018-09-06T20:35:29.014Z,13.93
2018-09-06T20:37:57.554Z,14.93
2018-09-06T20:40:26.125Z,15.77
2018-09-06T20:42:54.669Z,14.97
2018-09-06T20:45:23.219Z,15.20
2018-09-06T20:47:51.881Z,14.23
2018-09-06T20:50:20.444Z,15.67
2018-09-06T20:52:48.981Z,15.37
2018-09-06T20:55:17.533Z,15.10
2018-09-06T20:57:46.048Z,15.07
2018-09-06T21:00:14.617Z,14.50
2018-09-06T21:02:43.129Z,15.17
2018-09-06T21:05:11.729Z,16.20
2018-09-06T21:07:40.285Z,15.10
2018-09-06T21:10:08.875Z,15.47
2018-09-06T21:12:37.426Z,15.97
2018-09-06T21:15:06.045Z,15.57
2018-09-06T21:17:34.590Z,15.87
2018-09-06T21:20:03.200Z,16.17
2018-09-06T21:22:31.728Z,15.23
2018-09-06T21:25:00.294Z,14.23
2018-09-06T21:27:28.825Z,14.13
2018-09-06T21:29:57.462Z,14.23
2018-09-06T21:32:26.010Z,14.80
2018-09-06T21:34:54.635Z,13.07
2018-09-06T21:37:23.177Z,16.87
2018-09-06T21:39:51.793Z,16.00
2018-09-06T21:42:20.334Z,16.30
2018-09-06T21:44:48.905Z,16.27
2018-09-06T21:47:17.442Z,16.60
2018-09-06T21:49:46.013Z,16.53
2018-09-06T21:52:14.563Z,16.07
2018-09-06T21:54:43.528Z,15.27
2018-09-06T21:57:12.072Z,17.73
2018-09-06T21:59:40.655Z,18.10
2018-09-06T22:02:13.402Z,18.87
2018-09-06T22:04:42.018Z,17.40
2018-09-06T22:07:10.559Z,17.47
2018-09-06T22:09:39.100Z,16.93
2018-09-06T22:12:11.820Z,16.43
2018-09-06T22:14:40.363Z,16.00
2018-09-06T22:17:08.886Z,17.80
2018-09-06T22:19:37.405Z,16.07
2018-09-06T22:22:05.988Z,16.97
2018-09-06T22:24:34.518Z,17.10
2018-09-06T22:27:03.068Z,16.37
2018-09-06T22:29:31.610Z,16.20
2018-09-06T22:32:00.346Z,18.27
2018-09-06T22:34:29.318Z,17.47
2018-09-06T22:36:57.861Z,17.10
2018-09-06T22:39:26.376Z,17.93
2018-09-06T22:41:54.957Z,17.33
2018-09-06T22:44:23.488Z,17.50
2018-09-06T22:46:52.085Z,16.97
2018-09-06T22:49:21.528Z,19.40
2018-09-06T22:51:50.083Z,18.30
2018-09-06T22:54:18.643Z,17.50
2018-09-06T22:56:47.269Z,17.37
2018-09-06T22:59:15.793Z,17.67
2018-09-06T23:01:44.387Z,19.30
2018-09-06T23:04:13.037Z,17.87
2018-09-06T23:06:41.642Z,17.77
2018-09-06T23:09:10.214Z,18.97
2018-09-06T23:11:38.809Z,19.10
2018-09-06T23:14:07.424Z,18.23
2018-09-06T23:16:36.001Z,19.07
2018-09-06T23:19:04.541Z,20.63
2018-09-06T23:21:33.105Z,21.37
2018-09-06T23:24:01.634Z,21.50
2018-09-06T23:26:30.202Z,21.67
2018-09-06T23:28:58.741Z,20.90
2018-09-06T23:31:27.300Z,21.50
2018-09-06T23:33:55.842Z,20.13
2018-09-06T23:36:24.549Z,20.73
2018-09-06T23:38:53.101Z,21.47
2018-09-06T23:41:21.693Z,20.80
2018-09-06T23:43:50.253Z,21.40
2018-09-06T23:46:18.877Z,22.77
2018-09-06T23:48:47.426Z,23.23
2018-09-06T23:51:15.977Z,22.23
2018-09-06T23:53:44.514Z,22.43
2018-09-06T23:56:13.073Z,21.20
2018-09-06T23:58:41.620Z,22.37
